Time,TemperatureF,DewpointF,PressureIn,WindDirection,WindDirectionDegrees,WindSpeedMPH,WindSpeedGustMPH,Humidity,HourlyPrecipIn,Conditions,Clouds,dailyrainin,SolarRadiationWatts/m^2,SoftwareType,DateUTC
2013-10-06 00:04:00,34.3,30.6,30.10,NNW,342,5.0,8.0,86,0.00,,CLR,0.00,0.00,VWS V14.00,2013-10-06 05:04:00,
2013-10-06 00:09:00,33.9,30.2,30.10,NNW,338,3.0,8.0,86,0.00,,CLR,0.00,0.00,VWS V14.00,2013-10-06 05:09:00,
2013-10-06 00:14:00,33.7,30.0,30.10,NNW,335,5.0,8.0,86,0.00,,CLR,0.00,0.00,VWS V14.00,2013-10-06 05:14:00,
2013-10-06 00:19:00,33.7,30.2,30.11,NNW,327,9.0,9.0,87,0.00,,CLR,0.00,0.00,VWS V14.00,2013-10-06 05:19:00,
2013-10-06 00:24:00,34.4,30.6,30.11,NW,321,8.0,10.0,86,0.00,,CLR,0.00,0.00,VWS V14.00,2013-10-06 05:24:00,
2013-10-06 00:29:00,34.5,30.5,30.10,NNW,327,7.0,10.0,85,0.00,,CLR,0.00,0.00,VWS V14.00,2013-10-06 05:29:00,
2013-10-06 00:34:00,34.2,29.9,30.10,NNW,331,5.0,7.0,84,0.00,,CLR,0.00,0.00,VWS V14.00,2013-10-06 05:34:00,
2013-10-06 00:39:00,33.8,29.8,30.10,NNW,338,6.0,9.0,85,0.00,,CLR,0.00,0.00,VWS V14.00,2013-10-06 05:39:00,
2013-10-06 00:44:00,33.3,29.3,30.10,NNW,337,5.0,9.0,85,0.00,,CLR,0.00,0.00,VWS V14.00,2013-10-06 05:44:00,
2013-10-06 00:49:00,33.4,29.7,30.10,NNW,331,5.0,9.0,86,0.00,,CLR,0.00,0.00,VWS V14.00,2013-10-06 05:49:00,
2013-10-06 00:54:00,33.3,29.6,30.10,NNW,328,7.0,9.0,86,0.00,,CLR,0.00,0.00,VWS V14.00,2013-10-06 05:54:00,
2013-10-06 00:59:00,33.7,29.7,30.10,NNW,331,8.0,9.0,85,0.00,,CLR,0.00,0.00,VWS V14.00,2013-10-06 05:59:00,
2013-10-06 01:04:00,33.6,29.6,30.10,NNW,333,7.0,11.0,85,0.00,,CLR,0.00,0.00,VWS V14.00,2013-10-06 06:04:00,
2013-10-06 01:09:00,33.4,29.4,30.09,NNW,337,7.0,11.0,85,0.00,,CLR,0.00,0.00,VWS V14.00,2013-10-06 06:09:00,
2013-10-06 01:14:00,33.1,29.1,30.09,NNW,335,8.0,11.0,85,0.00,,CLR,0.00,0.00,VWS V14.00,2013-10-06 06:14:00,
2013-10-06 01:20:00,32.9,29.2,30.09,NW,321,8.0,11.0,86,0.00,,CLR,0.00,0.00,VWS V14.00,2013-10-06 06:20:00,
2013-10-06 01:25:00,33.0,29.0,30.09,NNW,327,7.0,11.0,85,0.00,,CLR,0.00,0.00,VWS V14.00,2013-10-06 06:25:00,
2013-10-06 01:30:00,32.8,29.1,30.09,NW,322,7.0,8.0,86,0.00,,CLR,0.00,0.00,VWS V14.00,2013-10-06 06:30:00,
2013-10-06 01:35:00,33.0,29.0,30.09,NW,320,5.0,8.0,85,0.00,,CLR,0.00,0.00,VWS V14.00,2013-10-06 06:35:00,
2013-10-06 01:40:00,32.9,29.2,30.09,NW,319,6.0,8.0,86,0.00,,CLR,0.00,0.00,VWS V14.00,2013-10-06 06:40:00,
2013-10-06 01:45:00,32.6,28.6,30.09,NW,315,4.0,9.0,85,0.00,,CLR,0.00,0.00,VWS V14.00,2013-10-06 06:45:00,
2013-10-06 01:50:00,32.0,28.6,30.09,NW,313,4.0,9.0,87,0.00,,CLR,0.00,0.00,VWS V14.00,2013-10-06 06:50:00,
2013-10-06 01:55:00,31.6,28.5,30.09,NW,313,3.0,9.0,88,0.00,,CLR,0.00,0.00,VWS V14.00,2013-10-06 06:55:00,
2013-10-06 02:00:00,31.5,28.6,30.09,NW,313,3.0,3.0,89,0.00,,CLR,0.00,0.00,VWS V14.00,2013-10-06 07:00:00,
2013-10-06 02:05:00,31.4,28.5,30.09,NW,313,3.0,3.0,89,0.00,,CLR,0.00,0.00,VWS V14.00,2013-10-06 07:05:00,
2013-10-06 02:10:00,31.2,28.3,30.09,NW,313,4.0,4.0,89,0.00,,CLR,0.00,0.00,VWS V14.00,2013-10-06 07:10:00,
2013-10-06 02:15:00,31.0,28.4,30.09,NW,313,4.0,5.0,90,0.00,,CLR,0.00,0.00,VWS V14.00,2013-10-06 07:15:00,
2013-10-06 02:20:00,30.9,28.3,30.10,NW,313,2.0,5.0,90,0.00,,CLR,0.00,0.00,VWS V14.00,2013-10-06 07:20:00,
2013-10-06 02:25:00,30.7,28.1,30.10,NW,313,2.0,5.0,90,0.00,,CLR,0.00,0.00,VWS V14.00,2013-10-06 07:25:00,
2013-10-06 02:30:00,30.5,27.9,30.09,NW,313,3.0,3.0,90,0.00,,CLR,0.00,0.00,VWS V14.00,2013-10-06 07:30:00,
2013-10-06 02:35:00,30.2,27.6,30.09,NW,313,3.0,4.0,90,0.00,,CLR,0.00,0.00,VWS V14.00,2013-10-06 07:35:00,
2013-10-06 02:40:00,30.1,27.8,30.09,NW,313,3.0,4.0,91,0.00,,CLR,0.00,0.00,VWS V14.00,2013-10-06 07:40:00,
2013-10-06 02:45:00,29.6,27.0,30.09,NW,324,3.0,5.0,90,0.00,,CLR,0.00,0.00,VWS V14.00,2013-10-06 07:45:00,
2013-10-06 02:50:00,29.4,27.1,30.09,NNW,343,5.0,7.0,91,0.00,,CLR,0.00,0.00,VWS V14.00,2013-10-06 07:50:00,
2013-10-06 02:55:00,29.8,27.8,30.09,NNW,344,4.0,7.0,92,0.00,,CLR,0.00,0.00,VWS V14.00,2013-10-06 07:55:00,
2013-10-06 03:00:00,29.7,27.4,30.09,NNW,343,4.0,5.0,91,0.00,,CLR,0.00,0.00,VWS V14.00,2013-10-06 08:00:00,
2013-10-06 03:05:00,29.9,27.6,30.09,NNW,339,5.0,6.0,91,0.00,,CLR,0.00,0.00,VWS V14.00,2013-10-06 08:05:00,
2013-10-06 03:10:00,29.6,27.3,30.09,NNW,336,6.0,7.0,91,0.00,,CLR,0.00,0.00,VWS V14.00,2013-10-06 08:10:00,
2013-10-06 03:15:00,30.0,28.0,30.09,NNW,327,6.0,7.0,92,0.00,,CLR,0.00,0.00,VWS V14.00,2013-10-06 08:15:00,
2013-10-06 03:20:00,30.7,28.7,30.09,NW,321,5.0,7.0,92,0.00,,CLR,0.00,0.00,VWS V14.00,2013-10-06 08:20:00,
2013-10-06 03:25:00,30.7,28.4,30.08,NW,320,5.0,7.0,91,0.00,,CLR,0.00,0.00,VWS V14.00,2013-10-06 08:25:00,
2013-10-06 03:31:00,30.9,28.6,30.08,NW,319,6.0,7.0,91,0.00,,CLR,0.00,0.00,VWS V14.00,2013-10-06 08:31:00,
2013-10-06 03:36:00,31.0,28.7,30.08,NW,317,7.0,8.0,91,0.00,,CLR,0.00,0.00,VWS V14.00,2013-10-06 08:36:00,
2013-10-06 03:41:00,30.8,28.2,30.08,NW,317,7.0,8.0,90,0.00,,CLR,0.00,0.00,VWS V14.00,2013-10-06 08:41:00,
2013-10-06 03:46:00,30.4,27.8,30.08,NW,319,5.0,8.0,90,0.00,,CLR,0.00,0.00,VWS V14.00,2013-10-06 08:46:00,
2013-10-06 03:51:00,29.9,27.3,30.08,NW,321,6.0,8.0,90,0.00,,CLR,0.00,0.00,VWS V14.00,2013-10-06 08:51:00,
2013-10-06 03:56:00,29.9,27.9,30.08,NW,321,6.0,8.0,92,0.00,,CLR,0.00,0.00,VWS V14.00,2013-10-06 08:56:00,
2013-10-06 04:01:00,30.2,28.2,30.08,NW,321,6.0,8.0,92,0.00,,CLR,0.00,0.00,VWS V14.00,2013-10-06 09:01:00,
2013-10-06 04:06:00,30.0,27.7,30.08,NW,320,5.0,8.0,91,0.00,,CLR,0.00,0.00,VWS V14.00,2013-10-06 09:06:00,
2013-10-06 04:11:00,29.4,27.1,30.08,NW,318,6.0,8.0,91,0.00,,CLR,0.00,0.00,VWS V14.00,2013-10-06 09:11:00,
2013-10-06 04:12:00,29.3,27.0,30.08,NW,318,4.0,8.0,91,0.00,,CLR,0.00,0.00,VWS V14.00,2013-10-06 09:12:00,
2013-10-06 04:17:00,29.0,26.7,30.08,NW,315,3.0,8.0,91,0.00,,CLR,0.00,0.00,VWS V14.00,2013-10-06 09:17:00,
2013-10-06 04:22:00,28.9,26.9,30.08,NW,315,2.0,8.0,92,0.00,,CLR,0.00,0.00,VWS V14.00,2013-10-06 09:22:00,
2013-10-06 04:27:00,28.8,26.8,30.08,NW,315,2.0,8.0,92,0.00,,CLR,0.00,0.00,VWS V14.00,2013-10-06 09:27:00,
2013-10-06 04:32:00,28.8,26.8,30.08,NW,315,1.0,2.0,92,0.00,,CLR,0.00,0.00,VWS V14.00,2013-10-06 09:32:00,
2013-10-06 04:37:00,28.6,26.6,30.08,NW,315,0.0,2.0,92,0.00,,CLR,0.00,0.00,VWS V14.00,2013-10-06 09:37:00,
2013-10-06 04:42:00,28.1,26.1,30.08,NW,315,1.0,3.0,92,0.00,,CLR,0.00,0.00,VWS V14.00,2013-10-06 09:42:00,
2013-10-06 04:47:00,28.0,26.0,30.08,NW,315,0.0,3.0,92,0.00,,CLR,0.00,0.00,VWS V14.00,2013-10-06 09:47:00,
2013-10-06 04:52:00,28.4,26.6,30.08,NW,315,3.0,3.0,93,0.00,,CLR,0.00,0.00,VWS V14.00,2013-10-06 09:52:00,
2013-10-06 04:57:00,28.3,26.3,30.08,NW,315,3.0,4.0,92,0.00,,CLR,0.00,0.00,VWS V14.00,2013-10-06 09:57:00,
2013-10-06 05:02:00,28.7,26.9,30.07,NW,315,5.0,5.0,93,0.00,,CLR,0.00,0.00,VWS V14.00,2013-10-06 10:02:00,
2013-10-06 05:07:00,29.3,27.5,30.07,NW,315,5.0,8.0,93,0.00,,CLR,0.00,0.00,VWS V14.00,2013-10-06 10:07:00,
2013-10-06 05:12:00,29.5,27.7,30.07,NW,315,4.0,8.0,93,0.00,,CLR,0.00,0.00,VWS V14.00,2013-10-06 10:12:00,
2013-10-06 05:17:00,28.9,26.9,30.07,NW,315,4.0,8.0,92,0.00,,CLR,0.00,0.00,VWS V14.00,2013-10-06 10:17:00,
2013-10-06 05:22:00,28.3,26.3,30.07,NW,315,3.0,8.0,92,0.00,,CLR,0.00,0.00,VWS V14.00,2013-10-06 10:22:00,
2013-10-06 05:27:00,27.6,25.6,30.07,NW,315,3.0,8.0,92,0.00,,CLR,0.00,0.00,VWS V14.00,2013-10-06 10:27:00,
2013-10-06 05:32:00,27.2,25.2,30.07,NW,315,4.0,5.0,92,0.00,,CLR,0.00,0.00,VWS V14.00,2013-10-06 10:32:00,
2013-10-06 05:37:00,27.1,25.4,30.07,NW,315,5.0,6.0,93,0.00,,CLR,0.00,0.00,VWS V14.00,2013-10-06 10:37:00,
2013-10-06 05:42:00,27.0,25.2,30.07,NW,313,4.0,6.0,93,0.00,,CLR,0.00,0.00,VWS V14.00,2013-10-06 10:42:00,
2013-10-06 05:47:00,27.0,25.2,30.07,NW,309,6.0,6.0,93,0.00,,CLR,0.00,0.00,VWS V14.00,2013-10-06 10:47:00,
2013-10-06 05:52:00,27.1,25.4,30.07,NW,304,5.0,7.0,93,0.00,,CLR,0.00,0.00,VWS V14.00,2013-10-06 10:52:00,
2013-10-06 05:57:00,27.0,25.2,30.07,WNW,303,6.0,7.0,93,0.00,,CLR,0.00,0.00,VWS V14.00,2013-10-06 10:57:00,
2013-10-06 06:02:00,26.7,25.0,30.07,WNW,303,4.0,6.0,93,0.00,,CLR,0.00,0.00,VWS V14.00,2013-10-06 11:02:00,
2013-10-06 06:07:00,26.4,24.6,30.07,WNW,303,3.0,6.0,93,0.00,,CLR,0.00,0.00,VWS V14.00,2013-10-06 11:07:00,
2013-10-06 06:12:00,26.2,24.5,30.07,WNW,303,3.0,6.0,93,0.00,,CLR,0.00,0.00,VWS V14.00,2013-10-06 11:12:00,
2013-10-06 06:18:00,26.1,24.4,30.07,WNW,303,3.0,6.0,93,0.00,,CLR,0.00,0.00,VWS V14.00,2013-10-06 11:18:00,
2013-10-06 06:23:00,26.2,24.7,30.07,WNW,303,2.0,6.0,94,0.00,,CLR,0.00,0.00,VWS V14.00,2013-10-06 11:23:00,
2013-10-06 06:28:00,26.1,24.6,30.08,WNW,303,3.0,6.0,94,0.00,,CLR,0.00,0.00,VWS V14.00,2013-10-06 11:28:00,
2013-10-06 06:33:00,26.0,24.3,30.08,WNW,303,4.0,5.0,93,0.00,,CLR,0.00,0.00,VWS V14.00,2013-10-06 11:33:00,
2013-10-06 06:38:00,26.2,24.7,30.07,WNW,303,4.0,6.0,94,0.00,,CLR,0.00,0.00,VWS V14.00,2013-10-06 11:38:00,
2013-10-06 06:43:00,26.6,25.1,30.07,WNW,303,4.0,6.0,94,0.00,,CLR,0.00,0.00,VWS V14.00,2013-10-06 11:43:00,
2013-10-06 06:48:00,26.8,25.3,30.07,WNW,303,3.0,6.0,94,0.00,,CLR,0.00,0.00,VWS V14.00,2013-10-06 11:48:00,
2013-10-06 06:53:00,26.9,25.4,30.07,WNW,303,5.0,6.0,94,0.00,,CLR,0.00,0.00,VWS V14.00,2013-10-06 11:53:00,
2013-10-06 06:58:00,27.1,25.6,30.07,WNW,303,6.0,6.0,94,0.00,,CLR,0.00,0.00,VWS V14.00,2013-10-06 11:58:00,
2013-10-06 07:03:00,27.1,25.4,30.07,WNW,303,4.0,5.0,93,0.00,,CLR,0.00,0.00,VWS V14.00,2013-10-06 12:03:00,
2013-10-06 07:08:00,27.1,25.4,30.07,WNW,303,4.0,6.0,93,0.00,,CLR,0.00,0.00,VWS V14.00,2013-10-06 12:08:00,
2013-10-06 07:13:00,27.1,25.4,30.07,WNW,303,3.0,6.0,93,0.00,,CLR,0.00,0.00,VWS V14.00,2013-10-06 12:13:00,
2013-10-06 07:18:00,27.0,25.2,30.07,WNW,303,2.0,6.0,93,0.00,,CLR,0.00,0.00,VWS V14.00,2013-10-06 12:18:00,
2013-10-06 07:23:00,26.9,25.1,30.07,WNW,303,3.0,6.0,93,0.00,,CLR,0.00,0.00,VWS V14.00,2013-10-06 12:23:00,
2013-10-06 07:28:00,26.9,25.1,30.07,WNW,303,4.0,6.0,93,0.00,,CLR,0.00,0.00,VWS V14.00,2013-10-06 12:28:00,
2013-10-06 07:33:00,27.0,25.2,30.07,WNW,303,4.0,4.0,93,0.00,,CLR,0.00,0.00,VWS V14.00,2013-10-06 12:33:00,
2013-10-06 07:38:00,27.1,25.4,30.07,WNW,303,3.0,4.0,93,0.00,,CLR,0.00,0.00,VWS V14.00,2013-10-06 12:38:00,
2013-10-06 07:43:00,27.2,25.5,30.07,WNW,303,2.0,4.0,93,0.00,,CLR,0.00,5.00,VWS V14.00,2013-10-06 12:43:00,
2013-10-06 07:48:00,27.0,25.2,30.07,WNW,303,2.0,4.0,93,0.00,,CLR,0.00,7.00,VWS V14.00,2013-10-06 12:48:00,
2013-10-06 07:53:00,26.9,25.1,30.06,WNW,303,2.0,4.0,93,0.00,,CLR,0.00,11.00,VWS V14.00,2013-10-06 12:53:00,
2013-10-06 07:58:00,26.9,25.1,30.06,WNW,303,4.0,4.0,93,0.00,,CLR,0.00,12.00,VWS V14.00,2013-10-06 12:58:00,
2013-10-06 08:03:00,27.1,25.4,30.07,WNW,303,4.0,5.0,93,0.00,,CLR,0.00,16.00,VWS V14.00,2013-10-06 13:03:00,
2013-10-06 08:08:00,27.5,25.8,30.07,WNW,303,4.0,5.0,93,0.00,,CLR,0.00,21.00,VWS V14.00,2013-10-06 13:08:00,
2013-10-06 08:13:00,27.8,26.0,30.07,WNW,303,4.0,5.0,93,0.00,,CLR,0.00,25.00,VWS V14.00,2013-10-06 13:13:00,
2013-10-06 08:18:00,27.8,26.0,30.06,WNW,303,6.0,6.0,93,0.00,,CLR,0.00,30.00,VWS V14.00,2013-10-06 13:18:00,
2013-10-06 08:23:00,27.9,26.1,30.06,WNW,303,5.0,6.0,93,0.00,,CLR,0.00,37.00,VWS V14.00,2013-10-06 13:23:00,
2013-10-06 08:28:00,28.0,26.2,30.07,WNW,303,6.0,7.0,93,0.00,,CLR,0.00,53.00,VWS V14.00,2013-10-06 13:28:00,
2013-10-06 08:33:00,28.1,26.3,30.07,WNW,302,6.0,7.0,93,0.00,,CLR,0.00,70.00,VWS V14.00,2013-10-06 13:33:00,
2013-10-06 08:38:00,28.3,26.5,30.07,WNW,302,4.0,7.0,93,0.00,,CLR,0.00,86.00,VWS V14.00,2013-10-06 13:38:00,
2013-10-06 08:43:00,28.8,27.0,30.07,WNW,302,3.0,7.0,93,0.00,,CLR,0.00,100.00,VWS V14.00,2013-10-06 13:43:00,
2013-10-06 08:48:00,29.3,27.5,30.07,WNW,302,4.0,7.0,93,0.00,,CLR,0.00,116.00,VWS V14.00,2013-10-06 13:48:00,
2013-10-06 08:53:00,29.9,28.4,30.07,WNW,302,6.0,8.0,94,0.00,,CLR,0.00,113.00,VWS V14.00,2013-10-06 13:53:00,
2013-10-06 08:58:00,30.5,28.7,30.07,WNW,300,8.0,8.0,93,0.00,,CLR,0.00,97.00,VWS V14.00,2013-10-06 13:58:00,
2013-10-06 09:04:00,31.1,29.0,30.07,WNW,299,7.0,8.0,92,0.00,,CLR,0.00,88.00,VWS V14.00,2013-10-06 14:04:00,
2013-10-06 09:09:00,31.4,29.4,30.07,WNW,299,6.0,9.0,92,0.00,,CLR,0.00,121.00,VWS V14.00,2013-10-06 14:09:00,
2013-10-06 09:14:00,31.7,29.4,30.07,WNW,300,8.0,9.0,91,0.00,,CLR,0.00,174.00,VWS V14.00,2013-10-06 14:14:00,
2013-10-06 09:19:00,32.3,30.0,30.08,WNW,300,6.0,9.0,91,0.00,,CLR,0.00,181.00,VWS V14.00,2013-10-06 14:19:00,
2013-10-06 09:24:00,32.9,30.3,30.07,WNW,300,6.0,9.0,90,0.00,,CLR,0.00,204.00,VWS V14.00,2013-10-06 14:24:00,
2013-10-06 09:29:00,33.5,30.9,30.08,WNW,300,5.0,9.0,90,0.00,,CLR,0.00,216.00,VWS V14.00,2013-10-06 14:29:00,
2013-10-06 09:34:00,34.3,31.4,30.08,WNW,300,6.0,7.0,89,0.00,,CLR,0.00,253.00,VWS V14.00,2013-10-06 14:34:00,
2013-10-06 09:39:00,35.1,31.9,30.08,WNW,300,4.0,7.0,88,0.00,,CLR,0.00,271.00,VWS V14.00,2013-10-06 14:39:00,
2013-10-06 09:44:00,36.1,32.9,30.07,WNW,300,5.0,7.0,88,0.00,,CLR,0.00,283.00,VWS V14.00,2013-10-06 14:44:00,
2013-10-06 09:49:00,37.3,33.2,30.08,WNW,294,8.0,10.0,85,0.00,,CLR,0.00,297.00,VWS V14.00,2013-10-06 14:49:00,
2013-10-06 09:54:00,37.5,32.5,30.08,WNW,294,7.0,10.0,82,0.00,,CLR,0.00,309.00,VWS V14.00,2013-10-06 14:54:00,
2013-10-06 09:59:00,37.8,32.8,30.08,WNW,294,7.0,10.0,82,0.00,,CLR,0.00,322.00,VWS V14.00,2013-10-06 14:59:00,
2013-10-06 10:04:00,38.3,33.6,30.08,WNW,300,9.0,10.0,83,0.00,,CLR,0.00,336.00,VWS V14.00,2013-10-06 15:04:00,
2013-10-06 10:09:00,38.8,33.5,30.08,NW,309,11.0,12.0,81,0.00,,CLR,0.00,346.00,VWS V14.00,2013-10-06 15:09:00,
2013-10-06 10:14:00,39.2,33.6,30.07,NW,307,9.0,14.0,80,0.00,,CLR,0.00,357.00,VWS V14.00,2013-10-06 15:14:00,
2013-10-06 10:19:00,39.7,33.7,30.08,NW,311,13.0,14.0,79,0.00,,CLR,0.00,362.00,VWS V14.00,2013-10-06 15:19:00,
2013-10-06 10:24:00,40.2,34.2,30.08,NW,308,11.0,14.0,79,0.00,,CLR,0.00,359.00,VWS V14.00,2013-10-06 15:24:00,
2013-10-06 10:29:00,40.7,34.1,30.08,NW,309,12.0,14.0,77,0.00,,CLR,0.00,355.00,VWS V14.00,2013-10-06 15:29:00,
2013-10-06 10:34:00,41.5,34.5,30.08,NW,307,10.0,13.0,76,0.00,,CLR,0.00,346.00,VWS V14.00,2013-10-06 15:34:00,
2013-10-06 10:39:00,42.2,34.9,30.08,WNW,298,11.0,15.0,75,0.00,,CLR,0.00,332.00,VWS V14.00,2013-10-06 15:39:00,
2013-10-06 10:44:00,43.0,35.3,30.08,WNW,294,13.0,15.0,74,0.00,,CLR,0.00,309.00,VWS V14.00,2013-10-06 15:44:00,
2013-10-06 10:49:00,43.7,35.3,30.08,WNW,301,8.0,15.0,72,0.00,,CLR,0.00,294.00,VWS V14.00,2013-10-06 15:49:00,
2013-10-06 10:54:00,44.5,35.7,30.08,WNW,294,13.0,15.0,71,0.00,,CLR,0.00,292.00,VWS V14.00,2013-10-06 15:54:00,
2013-10-06 10:59:00,45.5,36.7,30.08,WNW,302,9.0,15.0,71,0.00,,CLR,0.00,292.00,VWS V14.00,2013-10-06 15:59:00,
2013-10-06 11:04:00,46.3,36.7,30.08,NW,315,13.0,15.0,69,0.00,,CLR,0.00,299.00,VWS V14.00,2013-10-06 16:04:00,
2013-10-06 11:09:00,47.0,37.0,30.08,NW,305,12.0,15.0,68,0.00,,CLR,0.00,322.00,VWS V14.00,2013-10-06 16:09:00,
2013-10-06 11:14:00,47.7,37.3,30.07,NW,313,11.0,15.0,67,0.00,,CLR,0.00,343.00,VWS V14.00,2013-10-06 16:14:00,
2013-10-06 11:19:00,47.7,36.9,30.07,NW,319,12.0,17.0,66,0.00,,CLR,0.00,367.00,VWS V14.00,2013-10-06 16:19:00,
2013-10-06 11:24:00,48.2,37.0,30.08,NW,314,11.0,19.0,65,0.00,,CLR,0.00,299.00,VWS V14.00,2013-10-06 16:24:00,
2013-10-06 11:29:00,48.8,38.3,30.08,NW,323,13.0,15.0,67,0.00,,CLR,0.00,336.00,VWS V14.00,2013-10-06 16:29:00,
2013-10-06 11:35:00,49.2,38.0,30.07,NW,317,15.0,19.0,65,0.00,,CLR,0.00,441.00,VWS V14.00,2013-10-06 16:35:00,
2013-10-06 11:40:00,49.5,37.8,30.07,WNW,293,12.0,19.0,64,0.00,,CLR,0.00,425.00,VWS V14.00,2013-10-06 16:40:00,
2013-10-06 11:45:00,49.6,37.5,30.07,WNW,294,11.0,19.0,63,0.00,,CLR,0.00,422.00,VWS V14.00,2013-10-06 16:45:00,
2013-10-06 11:50:00,50.0,37.5,30.07,NW,311,14.0,19.0,62,0.00,,CLR,0.00,504.00,VWS V14.00,2013-10-06 16:50:00,
2013-10-06 11:55:00,50.6,39.7,30.07,WNW,300,15.0,19.0,66,0.00,,CLR,0.00,436.00,VWS V14.00,2013-10-06 16:55:00,
2013-10-06 12:00:00,51.1,38.5,30.07,WNW,292,9.0,12.0,62,0.00,,CLR,0.00,457.00,VWS V14.00,2013-10-06 17:00:00,
2013-10-06 12:05:00,51.8,39.6,30.08,WNW,302,9.0,14.0,63,0.00,,CLR,0.00,494.00,VWS V14.00,2013-10-06 17:05:00,
2013-10-06 12:10:00,52.2,40.4,30.07,WNW,291,8.0,15.0,64,0.00,,CLR,0.00,587.00,VWS V14.00,2013-10-06 17:10:00,
2013-10-06 12:15:00,52.8,40.2,30.07,WNW,301,10.0,15.0,62,0.00,,CLR,0.00,594.00,VWS V14.00,2013-10-06 17:15:00,
2013-10-06 12:20:00,53.1,40.0,30.07,NW,309,10.0,15.0,61,0.00,,CLR,0.00,596.00,VWS V14.00,2013-10-06 17:20:00,
2013-10-06 12:25:00,53.6,39.6,30.07,NW,315,7.0,15.0,59,0.00,,CLR,0.00,603.00,VWS V14.00,2013-10-06 17:25:00,
2013-10-06 12:30:00,54.4,39.5,30.07,WNW,294,13.0,13.0,57,0.00,,CLR,0.00,608.00,VWS V14.00,2013-10-06 17:30:00,
2013-10-06 12:35:00,54.8,39.4,30.07,NW,312,13.0,17.0,56,0.00,,CLR,0.00,613.00,VWS V14.00,2013-10-06 17:35:00,
2013-10-06 12:40:00,54.8,38.0,30.06,NW,309,11.0,17.0,53,0.00,,CLR,0.00,617.00,VWS V14.00,2013-10-06 17:40:00,
2013-10-06 12:45:00,55.6,39.7,30.06,WNW,302,12.0,17.0,55,0.00,,CLR,0.00,622.00,VWS V14.00,2013-10-06 17:45:00,
2013-10-06 12:50:00,55.9,39.0,30.06,WNW,299,10.0,17.0,53,0.00,,CLR,0.00,626.00,VWS V14.00,2013-10-06 17:50:00,
2013-10-06 12:55:00,56.4,40.5,30.06,WNW,291,10.0,17.0,55,0.00,,CLR,0.00,628.00,VWS V14.00,2013-10-06 17:55:00,
2013-10-06 13:00:00,56.8,40.8,30.06,WNW,300,10.0,12.0,55,0.00,,CLR,0.00,633.00,VWS V14.00,2013-10-06 18:00:00,
2013-10-06 13:05:00,56.4,38.5,30.06,WNW,296,13.0,15.0,51,0.00,,CLR,0.00,635.00,VWS V14.00,2013-10-06 18:05:00,
2013-10-06 13:10:00,56.8,39.9,30.05,WNW,296,15.0,15.0,53,0.00,,CLR,0.00,638.00,VWS V14.00,2013-10-06 18:10:00,
2013-10-06 13:15:00,57.1,40.2,30.05,WNW,288,9.0,17.0,53,0.00,,CLR,0.00,640.00,VWS V14.00,2013-10-06 18:15:00,
2013-10-06 13:20:00,57.2,38.8,30.05,NW,319,12.0,17.0,50,0.00,,CLR,0.00,643.00,VWS V14.00,2013-10-06 18:20:00,
2013-10-06 13:25:00,57.5,40.0,30.05,WNW,300,9.0,17.0,52,0.00,,CLR,0.00,645.00,VWS V14.00,2013-10-06 18:25:00,
2013-10-06 13:30:00,57.3,41.8,30.04,WNW,283,7.0,8.0,56,0.00,,CLR,0.00,656.00,VWS V14.00,2013-10-06 18:30:00,
2013-10-06 13:35:00,57.1,41.6,30.04,West,279,5.0,11.0,56,0.00,,CLR,0.00,598.00,VWS V14.00,2013-10-06 18:35:00,
2013-10-06 13:40:00,57.3,42.2,30.04,WNW,284,6.0,11.0,57,0.00,,CLR,0.00,645.00,VWS V14.00,2013-10-06 18:40:00,
2013-10-06 13:45:00,57.4,43.2,30.04,West,263,8.0,11.0,59,0.00,,CLR,0.00,654.00,VWS V14.00,2013-10-06 18:45:00,
2013-10-06 13:50:00,57.3,43.5,30.03,WSW,253,12.0,13.0,60,0.00,,CLR,0.00,647.00,VWS V14.00,2013-10-06 18:50:00,
2013-10-06 13:55:00,56.6,42.0,30.03,WSW,250,13.0,14.0,58,0.00,,CLR,0.00,647.00,VWS V14.00,2013-10-06 18:55:00,
2013-10-06 14:00:00,56.2,42.5,30.03,WSW,254,11.0,13.0,60,0.00,,CLR,0.00,621.00,VWS V14.00,2013-10-06 19:00:00,
2013-10-06 14:05:00,56.2,42.1,30.03,West,261,13.0,16.0,59,0.00,,CLR,0.00,615.00,VWS V14.00,2013-10-06 19:05:00,
2013-10-06 14:10:00,56.4,42.3,30.03,West,272,11.0,16.0,59,0.00,,CLR,0.00,642.00,VWS V14.00,2013-10-06 19:10:00,
2013-10-06 14:15:00,56.6,42.9,30.03,West,273,12.0,16.0,60,0.00,,CLR,0.00,647.00,VWS V14.00,2013-10-06 19:15:00,
2013-10-06 14:20:00,56.8,41.8,30.03,West,267,10.0,16.0,57,0.00,,CLR,0.00,612.00,VWS V14.00,2013-10-06 19:20:00,
2013-10-06 14:26:00,57.2,41.7,30.02,West,267,8.0,16.0,56,0.00,,CLR,0.00,649.00,VWS V14.00,2013-10-06 19:26:00,
2013-10-06 14:31:00,57.4,41.8,30.02,West,263,7.0,13.0,56,0.00,,CLR,0.00,580.00,VWS V14.00,2013-10-06 19:31:00,
2013-10-06 14:36:00,57.6,41.6,30.01,WSW,249,9.0,14.0,55,0.00,,CLR,0.00,606.00,VWS V14.00,2013-10-06 19:36:00,
2013-10-06 14:41:00,58.0,41.0,30.01,WSW,257,11.0,14.0,53,0.00,,CLR,0.00,578.00,VWS V14.00,2013-10-06 19:41:00,
2013-10-06 14:46:00,58.4,40.4,30.01,WSW,257,8.0,14.0,51,0.00,,CLR,0.00,599.00,VWS V14.00,2013-10-06 19:46:00,
2013-10-06 14:51:00,58.5,40.5,30.01,West,275,12.0,14.0,51,0.00,,CLR,0.00,482.00,VWS V14.00,2013-10-06 19:51:00,
2013-10-06 14:56:00,58.7,41.1,30.01,West,260,12.0,14.0,52,0.00,,CLR,0.00,541.00,VWS V14.00,2013-10-06 19:56:00,
2013-10-06 15:01:00,58.9,39.8,30.01,WNW,282,11.0,13.0,49,0.00,,CLR,0.00,554.00,VWS V14.00,2013-10-06 20:01:00,
2013-10-06 15:06:00,59.3,40.7,30.01,West,277,9.0,13.0,50,0.00,,CLR,0.00,591.00,VWS V14.00,2013-10-06 20:06:00,
2013-10-06 15:11:00,60.0,40.3,30.01,West,278,7.0,13.0,48,0.00,,CLR,0.00,573.00,VWS V14.00,2013-10-06 20:11:00,
2013-10-06 15:16:00,60.1,40.4,30.01,West,263,15.0,17.0,48,0.00,,CLR,0.00,517.00,VWS V14.00,2013-10-06 20:16:00,
2013-10-06 15:21:00,60.3,40.0,30.01,WNW,285,11.0,17.0,47,0.00,,CLR,0.00,408.00,VWS V14.00,2013-10-06 20:21:00,
2013-10-06 15:26:00,60.1,40.4,30.00,WNW,286,8.0,17.0,48,0.00,,CLR,0.00,504.00,VWS V14.00,2013-10-06 20:26:00,
2013-10-06 15:31:00,60.0,40.3,30.00,WNW,285,13.0,15.0,48,0.00,,CLR,0.00,443.00,VWS V14.00,2013-10-06 20:31:00,
2013-10-06 15:36:00,60.1,40.9,30.00,WNW,287,12.0,16.0,49,0.00,,CLR,0.00,476.00,VWS V14.00,2013-10-06 20:36:00,
2013-10-06 15:41:00,60.2,40.5,30.00,WNW,293,12.0,16.0,48,0.00,,CLR,0.00,540.00,VWS V14.00,2013-10-06 20:41:00,
2013-10-06 15:46:00,60.9,40.5,30.00,West,281,9.0,17.0,47,0.00,,CLR,0.00,536.00,VWS V14.00,2013-10-06 20:46:00,
2013-10-06 15:51:00,61.3,40.9,30.00,West,271,13.0,17.0,47,0.00,,CLR,0.00,520.00,VWS V14.00,2013-10-06 20:51:00,
2013-10-06 15:56:00,61.6,42.3,30.00,West,267,14.0,17.0,49,0.00,,CLR,0.00,503.00,VWS V14.00,2013-10-06 20:56:00,
2013-10-06 16:01:00,61.5,42.2,30.00,WNW,294,12.0,16.0,49,0.00,,CLR,0.00,485.00,VWS V14.00,2013-10-06 21:01:00,
2013-10-06 16:06:00,61.2,41.4,30.00,WNW,289,15.0,16.0,48,0.00,,CLR,0.00,482.00,VWS V14.00,2013-10-06 21:06:00,
2013-10-06 16:11:00,61.1,42.3,30.00,WNW,299,11.0,16.0,50,0.00,,CLR,0.00,469.00,VWS V14.00,2013-10-06 21:11:00,
2013-10-06 16:17:00,61.1,43.4,30.00,WNW,292,12.0,16.0,52,0.00,,CLR,0.00,454.00,VWS V14.00,2013-10-06 21:17:00,
2013-10-06 16:22:00,61.3,43.0,30.00,WNW,289,10.0,16.0,51,0.00,,CLR,0.00,443.00,VWS V14.00,2013-10-06 21:22:00,
2013-10-06 16:27:00,61.6,42.3,29.99,WNW,296,13.0,16.0,49,0.00,,CLR,0.00,432.00,VWS V14.00,2013-10-06 21:27:00,
2013-10-06 16:32:00,62.0,43.2,29.99,WNW,290,7.0,12.0,50,0.00,,CLR,0.00,401.00,VWS V14.00,2013-10-06 21:32:00,
2013-10-06 16:37:00,62.5,44.7,30.00,WNW,282,11.0,13.0,52,0.00,,CLR,0.00,403.00,VWS V14.00,2013-10-06 21:37:00,
2013-10-06 16:42:00,62.7,43.8,29.99,WSW,257,10.0,13.0,50,0.00,,CLR,0.00,397.00,VWS V14.00,2013-10-06 21:42:00,
2013-10-06 16:47:00,62.7,44.3,29.99,WSW,249,10.0,13.0,51,0.00,,CLR,0.00,385.00,VWS V14.00,2013-10-06 21:47:00,
2013-10-06 16:52:00,62.3,44.0,29.99,WSW,248,10.0,13.0,51,0.00,,CLR,0.00,355.00,VWS V14.00,2013-10-06 21:52:00,
2013-10-06 16:57:00,62.4,42.5,29.98,WSW,249,10.0,13.0,48,0.00,,CLR,0.00,359.00,VWS V14.00,2013-10-06 21:57:00,
2013-10-06 17:02:00,62.4,43.0,29.98,West,261,10.0,12.0,49,0.00,,CLR,0.00,345.00,VWS V14.00,2013-10-06 22:02:00,
2013-10-06 17:07:00,62.6,43.2,29.98,WSW,245,12.0,13.0,49,0.00,,CLR,0.00,332.00,VWS V14.00,2013-10-06 22:07:00,
2013-10-06 17:12:00,62.7,41.6,29.98,WSW,257,12.0,14.0,46,0.00,,CLR,0.00,316.00,VWS V14.00,2013-10-06 22:12:00,
2013-10-06 17:17:00,62.8,43.4,29.98,West,259,12.0,14.0,49,0.00,,CLR,0.00,292.00,VWS V14.00,2013-10-06 22:17:00,
2013-10-06 17:22:00,62.9,43.5,29.98,WSW,242,11.0,14.0,49,0.00,,CLR,0.00,274.00,VWS V14.00,2013-10-06 22:22:00,
2013-10-06 17:27:00,62.8,44.4,29.98,WSW,252,12.0,14.0,51,0.00,,CLR,0.00,279.00,VWS V14.00,2013-10-06 22:27:00,
2013-10-06 17:32:00,62.3,43.4,29.98,WSW,250,10.0,12.0,50,0.00,,CLR,0.00,251.00,VWS V14.00,2013-10-06 22:32:00,
2013-10-06 17:37:00,61.9,43.1,29.98,WSW,243,9.0,12.0,50,0.00,,CLR,0.00,211.00,VWS V14.00,2013-10-06 22:37:00,
2013-10-06 17:42:00,61.3,42.5,29.98,WSW,249,9.0,12.0,50,0.00,,CLR,0.00,202.00,VWS V14.00,2013-10-06 22:42:00,
2013-10-06 17:47:00,61.1,43.4,29.98,WSW,244,8.0,12.0,52,0.00,,CLR,0.00,206.00,VWS V14.00,2013-10-06 22:47:00,
2013-10-06 17:52:00,61.0,42.8,29.98,WSW,244,8.0,12.0,51,0.00,,CLR,0.00,171.00,VWS V14.00,2013-10-06 22:52:00,
2013-10-06 17:57:00,60.8,44.1,29.98,WSW,244,7.0,12.0,54,0.00,,CLR,0.00,151.00,VWS V14.00,2013-10-06 22:57:00,
2013-10-06 18:02:00,60.4,43.2,29.98,WSW,246,7.0,10.0,53,0.00,,CLR,0.00,144.00,VWS V14.00,2013-10-06 23:02:00,
2013-10-06 18:07:00,60.0,42.8,29.98,WSW,243,7.0,10.0,53,0.00,,CLR,0.00,146.00,VWS V14.00,2013-10-06 23:07:00,
2013-10-06 18:12:00,59.7,43.0,29.98,WSW,242,10.0,10.0,54,0.00,,CLR,0.00,134.00,VWS V14.00,2013-10-06 23:12:00,
2013-10-06 18:17:00,59.5,42.9,29.98,WSW,244,8.0,10.0,54,0.00,,CLR,0.00,107.00,VWS V14.00,2013-10-06 23:17:00,
2013-10-06 18:22:00,58.9,42.8,29.98,WSW,244,7.0,10.0,55,0.00,,CLR,0.00,86.00,VWS V14.00,2013-10-06 23:22:00,
2013-10-06 18:27:00,58.6,42.5,29.98,WSW,241,9.0,10.0,55,0.00,,CLR,0.00,79.00,VWS V14.00,2013-10-06 23:27:00,
2013-10-06 18:32:00,58.3,42.2,29.98,WSW,242,7.0,9.0,55,0.00,,CLR,0.00,60.00,VWS V14.00,2013-10-06 23:32:00,
2013-10-06 18:37:00,57.9,42.3,29.98,WSW,242,9.0,9.0,56,0.00,,CLR,0.00,28.00,VWS V14.00,2013-10-06 23:37:00,
2013-10-06 18:42:00,57.1,41.6,29.98,WSW,242,7.0,9.0,56,0.00,,CLR,0.00,26.00,VWS V14.00,2013-10-06 23:42:00,
2013-10-06 18:48:00,56.4,41.8,29.98,WSW,242,8.0,9.0,58,0.00,,CLR,0.00,23.00,VWS V14.00,2013-10-06 23:48:00,
2013-10-06 18:53:00,55.9,41.8,29.98,WSW,242,4.0,9.0,59,0.00,,CLR,0.00,18.00,VWS V14.00,2013-10-06 23:53:00,
2013-10-06 18:58:00,55.2,41.6,29.98,WSW,242,5.0,9.0,60,0.00,,CLR,0.00,14.00,VWS V14.00,2013-10-06 23:58:00,
2013-10-06 19:03:00,54.6,41.4,29.98,WSW,242,4.0,6.0,61,0.00,,CLR,0.00,12.00,VWS V14.00,2013-10-07 00:03:00,
2013-10-06 19:08:00,54.1,41.0,29.98,WSW,242,5.0,7.0,61,0.00,,CLR,0.00,7.00,VWS V14.00,2013-10-07 00:08:00,
2013-10-06 19:13:00,53.5,40.8,29.98,WSW,242,6.0,7.0,62,0.00,,CLR,0.00,5.00,VWS V14.00,2013-10-07 00:13:00,
2013-10-06 19:18:00,53.1,40.8,29.98,WSW,237,6.0,7.0,63,0.00,,CLR,0.00,0.00,VWS V14.00,2013-10-07 00:18:00,
2013-10-06 19:23:00,52.9,40.7,29.98,WSW,237,5.0,7.0,63,0.00,,CLR,0.00,0.00,VWS V14.00,2013-10-07 00:23:00,
2013-10-06 19:28:00,52.6,40.4,29.98,WSW,237,4.0,7.0,63,0.00,,CLR,0.00,0.00,VWS V14.00,2013-10-07 00:28:00,
2013-10-06 19:33:00,52.4,40.6,29.98,WSW,237,3.0,4.0,64,0.00,,CLR,0.00,0.00,VWS V14.00,2013-10-07 00:33:00,
2013-10-06 19:38:00,52.1,40.7,29.98,WSW,237,2.0,4.0,65,0.00,,CLR,0.00,0.00,VWS V14.00,2013-10-07 00:38:00,
2013-10-06 19:43:00,51.9,40.5,29.98,WSW,237,2.0,4.0,65,0.00,,CLR,0.00,0.00,VWS V14.00,2013-10-07 00:43:00,
2013-10-06 19:48:00,51.7,40.3,29.98,WSW,237,3.0,4.0,65,0.00,,CLR,0.00,0.00,VWS V14.00,2013-10-07 00:48:00,
2013-10-06 19:53:00,51.4,40.4,29.98,WSW,237,2.0,4.0,66,0.00,,CLR,0.00,0.00,VWS V14.00,2013-10-07 00:53:00,
2013-10-06 19:58:00,51.3,40.3,29.98,WSW,237,4.0,4.0,66,0.00,,CLR,0.00,0.00,VWS V14.00,2013-10-07 00:58:00,
2013-10-06 20:03:00,51.0,40.4,29.98,WSW,237,1.0,4.0,67,0.00,,CLR,0.00,0.00,VWS V14.00,2013-10-07 01:03:00,
2013-10-06 20:08:00,50.8,40.2,29.98,WSW,237,3.0,4.0,67,0.00,,CLR,0.00,0.00,VWS V14.00,2013-10-07 01:08:00,
2013-10-06 20:13:00,50.5,40.3,29.98,WSW,237,3.0,5.0,68,0.00,,CLR,0.00,0.00,VWS V14.00,2013-10-07 01:13:00,
2013-10-06 20:18:00,50.1,40.3,29.98,WSW,237,4.0,5.0,69,0.00,,CLR,0.00,0.00,VWS V14.00,2013-10-07 01:18:00,
2013-10-06 20:23:00,49.5,40.1,29.98,WSW,237,4.0,5.0,70,0.00,,CLR,0.00,0.00,VWS V14.00,2013-10-07 01:23:00,
2013-10-06 20:28:00,49.1,40.1,29.98,WSW,237,3.0,5.0,71,0.00,,CLR,0.00,0.00,VWS V14.00,2013-10-07 01:28:00,
2013-10-06 20:33:00,48.8,40.2,29.98,WSW,237,3.0,4.0,72,0.00,,CLR,0.00,0.00,VWS V14.00,2013-10-07 01:33:00,
2013-10-06 20:38:00,48.7,40.1,29.98,WSW,237,4.0,5.0,72,0.00,,CLR,0.00,0.00,VWS V14.00,2013-10-07 01:38:00,
2013-10-06 20:43:00,48.6,40.3,29.97,WSW,237,2.0,5.0,73,0.00,,CLR,0.00,0.00,VWS V14.00,2013-10-07 01:43:00,
2013-10-06 20:48:00,48.7,40.5,29.97,WSW,237,2.0,5.0,73,0.00,,CLR,0.00,0.00,VWS V14.00,2013-10-07 01:48:00,
2013-10-06 20:53:00,48.7,40.5,29.97,WSW,237,3.0,5.0,73,0.00,,CLR,0.00,0.00,VWS V14.00,2013-10-07 01:53:00,
2013-10-06 20:58:00,48.8,40.2,29.97,WSW,237,1.0,5.0,72,0.00,,CLR,0.00,0.00,VWS V14.00,2013-10-07 01:58:00,
2013-10-06 21:03:00,48.7,40.1,29.97,WSW,237,3.0,3.0,72,0.00,,CLR,0.00,0.00,VWS V14.00,2013-10-07 02:03:00,
2013-10-06 21:09:00,48.7,40.5,29.97,WSW,237,3.0,4.0,73,0.00,,CLR,0.00,0.00,VWS V14.00,2013-10-07 02:09:00,
2013-10-06 21:14:00,48.8,40.5,29.97,WSW,237,3.0,4.0,73,0.00,,CLR,0.00,0.00,VWS V14.00,2013-10-07 02:14:00,
2013-10-06 21:19:00,49.0,40.4,29.97,WSW,237,3.0,4.0,72,0.00,,CLR,0.00,0.00,VWS V14.00,2013-10-07 02:19:00,
2013-10-06 21:24:00,49.3,40.7,29.97,WSW,237,2.0,4.0,72,0.00,,CLR,0.00,0.00,VWS V14.00,2013-10-07 02:24:00,
2013-10-06 21:29:00,49.6,40.6,29.97,WSW,237,1.0,4.0,71,0.00,,CLR,0.00,0.00,VWS V14.00,2013-10-07 02:29:00,
2013-10-06 21:34:00,49.8,40.4,29.97,WSW,237,0.0,2.0,70,0.00,,CLR,0.00,0.00,VWS V14.00,2013-10-07 02:34:00,
2013-10-06 21:39:00,50.0,40.2,29.97,WSW,237,2.0,2.0,69,0.00,,CLR,0.00,0.00,VWS V14.00,2013-10-07 02:39:00,
2013-10-06 21:44:00,49.9,40.2,29.97,WSW,237,2.0,2.0,69,0.00,,CLR,0.00,0.00,VWS V14.00,2013-10-07 02:44:00,
2013-10-06 21:49:00,49.1,40.1,29.98,WSW,237,4.0,4.0,71,0.00,,CLR,0.00,0.00,VWS V14.00,2013-10-07 02:49:00,
2013-10-06 21:54:00,48.3,40.1,29.98,WSW,237,3.0,4.0,73,0.00,,CLR,0.00,0.00,VWS V14.00,2013-10-07 02:54:00,
2013-10-06 21:59:00,48.0,39.8,29.98,WSW,237,2.0,4.0,73,0.00,,CLR,0.00,0.00,VWS V14.00,2013-10-07 02:59:00,
2013-10-06 22:04:00,47.8,39.9,29.98,WSW,237,3.0,3.0,74,0.00,,CLR,0.00,0.00,VWS V14.00,2013-10-07 03:04:00,
2013-10-06 22:09:00,47.6,39.7,29.98,WSW,237,2.0,3.0,74,0.00,,CLR,0.00,0.00,VWS V14.00,2013-10-07 03:09:00,
2013-10-06 22:14:00,47.3,39.5,29.98,WSW,237,2.0,4.0,74,0.00,,CLR,0.00,0.00,VWS V14.00,2013-10-07 03:14:00,
2013-10-06 22:19:00,47.1,39.6,29.98,WSW,237,4.0,4.0,75,0.00,,CLR,0.00,0.00,VWS V14.00,2013-10-07 03:19:00,
2013-10-06 22:24:00,46.9,39.4,29.98,WSW,237,3.0,4.0,75,0.00,,CLR,0.00,0.00,VWS V14.00,2013-10-07 03:24:00,
2013-10-06 22:29:00,46.9,39.7,29.98,WSW,237,3.0,4.0,76,0.00,,CLR,0.00,0.00,VWS V14.00,2013-10-07 03:29:00,
2013-10-06 22:34:00,47.0,39.5,29.98,WSW,237,3.0,3.0,75,0.00,,CLR,0.00,0.00,VWS V14.00,2013-10-07 03:34:00,
2013-10-06 22:39:00,46.9,39.4,29.98,WSW,237,3.0,4.0,75,0.00,,CLR,0.00,0.00,VWS V14.00,2013-10-07 03:39:00,
2013-10-06 22:44:00,46.8,39.3,29.98,WSW,237,4.0,4.0,75,0.00,,CLR,0.00,0.00,VWS V14.00,2013-10-07 03:44:00,
2013-10-06 22:49:00,46.4,39.3,29.98,WSW,237,3.0,4.0,76,0.00,,CLR,0.00,0.00,VWS V14.00,2013-10-07 03:49:00,
2013-10-06 22:54:00,46.3,39.5,29.98,WSW,237,3.0,4.0,77,0.00,,CLR,0.00,0.00,VWS V14.00,2013-10-07 03:54:00,
2013-10-06 22:59:00,46.3,39.5,29.98,WSW,237,3.0,4.0,77,0.00,,CLR,0.00,0.00,VWS V14.00,2013-10-07 03:59:00,
2013-10-06 23:01:00,46.3,39.5,29.98,WSW,237,4.0,4.0,77,0.00,,CLR,0.00,0.00,VWS V14.00,2013-10-07 04:01:00,
2013-10-06 23:03:00,46.2,39.4,29.98,WSW,237,5.0,5.0,77,0.00,,CLR,0.00,0.00,VWS V14.00,2013-10-07 04:03:00,
2013-10-06 23:04:00,46.2,39.4,29.98,WSW,245,4.0,5.0,77,0.00,,CLR,0.00,0.00,VWS V14.00,2013-10-07 04:04:00,
2013-10-06 23:07:00,46.3,39.5,29.98,WNW,286,5.0,6.0,77,0.00,,CLR,0.00,0.00,VWS V14.00,2013-10-07 04:07:00,
2013-10-06 23:09:00,46.3,39.5,29.98,WNW,291,5.0,6.0,77,0.00,,CLR,0.00,0.00,VWS V14.00,2013-10-07 04:09:00,
2013-10-06 23:13:00,46.5,39.7,29.98,WNW,298,5.0,6.0,77,0.00,,CLR,0.00,0.00,VWS V14.00,2013-10-07 04:13:00,
2013-10-06 23:18:00,46.5,39.7,29.98,WNW,301,4.0,6.0,77,0.00,,CLR,0.00,0.00,VWS V14.00,2013-10-07 04:18:00,
2013-10-06 23:23:00,46.6,39.8,29.98,WNW,301,4.0,6.0,77,0.00,,CLR,0.00,0.00,VWS V14.00,2013-10-07 04:23:00,
2013-10-06 23:28:00,47.2,40.4,29.98,WNW,301,4.0,6.0,77,0.00,,CLR,0.00,0.00,VWS V14.00,2013-10-07 04:28:00,
2013-10-06 23:33:00,47.4,39.9,29.98,WNW,301,4.0,5.0,75,0.00,,CLR,0.00,0.00,VWS V14.00,2013-10-07 04:33:00,
2013-10-06 23:38:00,46.9,39.7,29.98,WNW,301,3.0,5.0,76,0.00,,CLR,0.00,0.00,VWS V14.00,2013-10-07 04:38:00,
2013-10-06 23:43:00,46.3,39.5,29.98,WNW,301,3.0,5.0,77,0.00,,CLR,0.00,0.00,VWS V14.00,2013-10-07 04:43:00,
2013-10-06 23:48:00,45.7,39.2,29.98,WNW,301,3.0,5.0,78,0.00,,CLR,0.00,0.00,VWS V14.00,2013-10-07 04:48:00,
2013-10-06 23:53:00,45.4,39.3,29.98,WNW,301,3.0,5.0,79,0.00,,CLR,0.00,0.00,VWS V14.00,2013-10-07 04:53:00,
2013-10-06 23:58:00,45.0,38.9,29.98,WNW,301,2.0,5.0,79,0.00,,CLR,0.00,0.00,VWS V14.00,2013-10-07 04:58:00,